Battleford, Canada
Current Conditions -  °F | °C
As of 11:29 AM on Monday 24 Nov 2014 (Local Time) from CYQW Reporting Station
Broken Clouds Broken Clouds  
Wind Chill:   Ceiling: 2000
Heat Index: 19°   Visibility: 9mi
Dew Point: 16°   Wind: 16mph
Humidity: 86%   Direction: 300°WNW
Pressure: 29.95"   Gusts: NA
Location:  52.77°N, 108.3°W
Report Text: CYQW 241729Z AUTO 30014KT 9SM BKN020 M07/M09 A2995 RMK SLP182
Loading
Personal Weather Stations






























Interactive Weather Map New forecast layout! Learn more

10-Day Weather Forecast

Advertisements
Track Severe Weather on mobile